createdAt,value
2023-11-01T00:00:48.096Z,19.76
2023-11-01T00:03:33.016Z,19.41
2023-11-01T00:06:04.124Z,19.23
2023-11-01T00:08:32.604Z,19.44
2023-11-01T00:11:01.223Z,19.54
2023-11-01T00:13:29.513Z,19.47
2023-11-01T00:15:58.283Z,19.40
2023-11-01T00:18:26.575Z,19.57
2023-11-01T00:20:55.655Z,19.53
2023-11-01T00:23:25.324Z,19.32
2023-11-01T00:25:54.048Z,19.69
2023-11-01T00:28:22.604Z,19.65
2023-11-01T00:30:51.316Z,19.60
2023-11-01T00:33:20.068Z,19.50
2023-11-01T00:35:49.352Z,19.40
2023-11-01T00:38:21.285Z,18.79
2023-11-01T00:40:51.226Z,19.28
2023-11-01T00:43:19.791Z,19.32
2023-11-01T00:45:48.648Z,19.49
2023-11-01T00:48:17.179Z,19.17
2023-11-01T00:50:46.602Z,19.36
2023-11-01T00:53:15.167Z,19.25
2023-11-01T00:55:43.905Z,19.30
2023-11-01T00:58:13.943Z,19.31
2023-11-01T01:00:42.624Z,19.76
2023-11-01T01:03:12.204Z,19.69
2023-11-01T01:05:43.120Z,19.76
2023-11-01T01:08:11.908Z,19.64
2023-11-01T01:10:40.493Z,19.70
2023-11-01T01:13:09.462Z,19.43
2023-11-01T01:15:39.686Z,19.16
2023-11-01T01:18:07.999Z,19.76
2023-11-01T01:20:36.835Z,19.40
2023-11-01T01:23:05.288Z,19.41
2023-11-01T01:25:34.152Z,19.25
2023-11-01T01:28:02.534Z,19.44
2023-11-01T01:30:31.270Z,19.72
2023-11-01T01:33:01.039Z,18.91
2023-11-01T01:35:29.971Z,19.56
2023-11-01T01:37:58.117Z,19.46
2023-11-01T01:40:26.847Z,19.25
2023-11-01T01:42:55.227Z,19.34
2023-11-01T01:45:24.257Z,19.24
2023-11-01T01:47:52.962Z,19.30
2023-11-01T01:50:23.552Z,18.88
2023-11-01T01:52:51.891Z,19.16
2023-11-01T01:55:20.947Z,19.13
2023-11-01T01:57:49.634Z,19.06
2023-11-01T02:00:19.434Z,19.12
2023-11-01T02:02:48.030Z,19.51
2023-11-01T02:05:16.796Z,19.24
2023-11-01T02:07:46.745Z,18.82
2023-11-01T02:10:15.811Z,19.02
2023-11-01T02:12:44.084Z,19.16
2023-11-01T02:15:12.809Z,19.19
2023-11-01T02:17:41.107Z,19.40
2023-11-01T02:20:10.989Z,18.97
2023-11-01T02:22:39.222Z,19.40
2023-11-01T02:25:09.650Z,18.90
2023-11-01T02:27:37.996Z,19.44
2023-11-01T02:30:07.918Z,19.51
2023-11-01T02:32:36.961Z,19.53
2023-11-01T02:35:07.428Z,19.32
2023-11-01T02:37:35.790Z,19.68
2023-11-01T02:40:04.655Z,19.63
2023-11-01T02:42:34.483Z,19.36
2023-11-01T02:45:03.181Z,19.80
2023-11-01T02:47:31.520Z,19.76
2023-11-01T02:50:00.081Z,19.76
2023-11-01T02:52:28.736Z,19.82
2023-11-01T02:54:57.303Z,19.50
2023-11-01T02:57:26.093Z,19.84
2023-11-01T02:59:56.409Z,19.42
2023-11-01T03:02:24.818Z,19.92
2023-11-01T03:04:54.013Z,19.69
2023-11-01T03:07:22.636Z,19.38
2023-11-01T03:09:51.052Z,19.54
2023-11-01T03:12:21.284Z,19.56
2023-11-01T03:14:50.969Z,19.67
2023-11-01T03:17:22.157Z,19.16
2023-11-01T03:19:50.999Z,19.38
2023-11-01T03:22:20.926Z,19.34
2023-11-01T03:24:50.868Z,19.46
2023-11-01T03:27:19.122Z,19.43
2023-11-01T03:29:47.824Z,19.60
2023-11-01T03:32:16.135Z,19.68
2023-11-01T03:34:47.163Z,18.95
2023-11-01T03:37:15.647Z,19.24
2023-11-01T03:39:44.193Z,19.03
2023-11-01T03:42:12.367Z,18.81
2023-11-01T03:44:41.071Z,18.84
2023-11-01T03:47:10.744Z,18.96
2023-11-01T03:49:39.320Z,18.98
2023-11-01T03:52:09.299Z,18.59
2023-11-01T03:54:37.883Z,19.25
2023-11-01T03:57:06.452Z,19.06
2023-11-01T03:59:35.296Z,18.98
2023-11-01T04:02:04.377Z,18.96
2023-11-01T04:04:33.457Z,18.85
2023-11-01T04:07:01.820Z,19.50
2023-11-01T04:09:31.862Z,18.83
2023-11-01T04:11:59.982Z,19.27
2023-11-01T04:14:29.217Z,19.22
2023-11-01T04:16:57.523Z,19.03
2023-11-01T04:19:26.312Z,18.80
2023-11-01T04:21:54.937Z,19.00
2023-11-01T04:24:25.252Z,18.80
2023-11-01T04:26:54.941Z,18.59
2023-11-01T04:29:26.776Z,19.04
2023-11-01T04:31:55.075Z,18.82
2023-11-01T04:34:23.814Z,18.98
2023-11-01T04:36:51.991Z,18.90
2023-11-01T04:39:20.563Z,18.52
2023-11-01T04:41:48.825Z,18.48
2023-11-01T04:44:18.667Z,18.05
2023-11-01T04:46:46.913Z,18.24
2023-11-01T04:49:15.343Z,18.41
2023-11-01T04:51:45.071Z,18.33
2023-11-01T04:54:13.576Z,18.53
2023-11-01T04:56:41.833Z,18.34
2023-11-01T04:59:10.355Z,18.38
2023-11-01T05:01:39.982Z,18.22
2023-11-01T05:04:09.326Z,18.25
2023-11-01T05:06:37.582Z,18.45
2023-11-01T05:09:06.263Z,18.38
2023-11-01T05:11:35.309Z,18.36
2023-11-01T05:14:04.580Z,18.54
2023-11-01T05:16:33.448Z,18.23
2023-11-01T05:19:03.280Z,18.11
2023-11-01T05:21:31.642Z,18.08
2023-11-01T05:24:00.184Z,18.25
2023-11-01T05:26:30.885Z,18.37
2023-11-01T05:28:59.485Z,18.80
2023-11-01T05:31:27.661Z,18.57
2023-11-01T05:33:56.436Z,18.86
2023-11-01T05:36:26.025Z,18.53
2023-11-01T05:38:54.613Z,18.92
2023-11-01T05:41:23.244Z,18.73
2023-11-01T05:43:51.858Z,19.02
2023-11-01T05:46:23.301Z,18.55
2023-11-01T05:48:51.960Z,18.44
2023-11-01T05:51:20.633Z,18.58
2023-11-01T05:53:51.105Z,18.47
2023-11-01T05:56:21.040Z,16.91
2023-11-01T05:58:51.038Z,18.44
2023-11-01T06:01:21.365Z,18.85
2023-11-01T06:03:52.087Z,18.61
2023-11-01T06:06:20.655Z,18.28
2023-11-01T06:08:50.648Z,18.09
2023-11-01T06:11:19.142Z,18.22
2023-11-01T06:13:47.689Z,18.19
2023-11-01T06:16:16.039Z,18.40
2023-11-01T06:18:47.381Z,18.21
2023-11-01T06:21:16.603Z,17.92
2023-11-01T06:23:46.135Z,17.88
2023-11-01T06:26:17.728Z,17.52
2023-11-01T06:28:46.911Z,18.17
2023-11-01T06:31:15.557Z,18.33
2023-11-01T06:33:44.236Z,18.12
2023-11-01T06:36:13.483Z,18.06
2023-11-01T06:38:42.320Z,18.08
2023-11-01T06:41:10.644Z,17.85
2023-11-01T06:43:40.556Z,17.56
2023-11-01T06:46:08.767Z,17.71
2023-11-01T06:48:37.604Z,17.37
2023-11-01T06:51:06.910Z,17.47
2023-11-01T06:53:35.589Z,17.03
2023-11-01T06:56:04.154Z,17.45
2023-11-01T06:58:32.954Z,17.49
2023-11-01T07:01:02.861Z,16.92
2023-11-01T07:03:32.101Z,16.83
2023-11-01T07:06:00.527Z,17.26
2023-11-01T07:08:29.163Z,17.28
2023-11-01T07:10:57.366Z,17.21
2023-11-01T07:13:28.491Z,16.63
2023-11-01T07:15:57.216Z,15.25
2023-11-01T07:18:27.444Z,13.27
2023-11-01T07:20:55.786Z,13.28
2023-11-01T07:23:24.508Z,13.19
2023-11-01T07:25:52.740Z,13.51
2023-11-01T07:28:21.267Z,13.31
2023-11-01T07:30:49.640Z,12.96
2023-11-01T07:33:18.331Z,12.79
2023-11-01T07:35:48.149Z,13.17
2023-11-01T07:38:16.771Z,13.08
2023-11-01T07:40:44.948Z,13.04
2023-11-01T07:43:13.552Z,13.21
2023-11-01T07:45:41.985Z,13.68
2023-11-01T07:48:10.769Z,13.46
2023-11-01T07:50:41.802Z,13.32
2023-11-01T07:53:11.665Z,12.24
2023-11-01T07:55:40.142Z,12.90
2023-11-01T07:58:09.000Z,11.22
2023-11-01T08:00:37.349Z,9.84
2023-11-01T08:03:06.163Z,8.48
2023-11-01T08:05:34.780Z,8.18
2023-11-01T08:08:03.586Z,7.47
2023-11-01T08:10:33.235Z,7.83
2023-11-01T08:13:01.941Z,7.35
2023-11-01T08:15:33.731Z,7.51
2023-11-01T08:18:03.693Z,6.29
2023-11-01T08:20:32.718Z,6.86
2023-11-01T08:23:01.333Z,7.22
2023-11-01T08:25:29.898Z,7.86
2023-11-01T08:27:59.882Z,8.49
2023-11-01T08:30:28.400Z,8.86
2023-11-01T08:32:57.153Z,8.00
2023-11-01T08:35:25.587Z,8.08
2023-11-01T08:37:54.170Z,8.27
2023-11-01T08:40:22.463Z,8.94
2023-11-01T08:42:51.099Z,9.50
2023-11-01T08:45:20.817Z,10.00
2023-11-01T08:47:51.713Z,10.25
2023-11-01T08:50:20.055Z,10.80
2023-11-01T08:52:48.666Z,11.12
2023-11-01T08:55:17.696Z,11.09
2023-11-01T08:57:47.376Z,11.13
2023-11-01T09:00:17.950Z,10.95
2023-11-01T09:02:49.740Z,10.48
2023-11-01T09:05:20.051Z,10.65
2023-11-01T09:07:50.895Z,11.08
2023-11-01T09:10:20.867Z,11.38
2023-11-01T09:12:49.625Z,11.60
2023-11-01T09:15:17.991Z,12.01
2023-11-01T09:17:46.649Z,11.90
2023-11-01T09:20:16.549Z,11.61
2023-11-01T09:22:46.037Z,11.93
2023-11-01T09:25:14.982Z,10.92
2023-11-01T09:27:44.198Z,10.77
2023-11-01T09:30:13.485Z,11.16
2023-11-01T09:32:42.492Z,11.44
2023-11-01T09:35:13.122Z,11.65
2023-11-01T09:37:43.285Z,11.75
2023-11-01T09:40:13.009Z,11.60
2023-11-01T09:42:42.542Z,11.27
2023-11-01T09:45:14.411Z,10.29
2023-11-01T09:47:43.288Z,8.78
2023-11-01T09:50:13.702Z,7.40
2023-11-01T09:52:44.230Z,8.14
2023-11-01T09:55:15.200Z,8.33
2023-11-01T09:57:44.564Z,8.30
2023-11-01T10:00:15.428Z,8.71
2023-11-01T10:02:50.147Z,9.06
2023-11-01T10:05:18.512Z,9.24
2023-11-01T10:07:48.505Z,8.78
2023-11-01T10:10:18.164Z,6.81
2023-11-01T10:12:47.114Z,7.40
2023-11-01T10:15:23.287Z,7.59
2023-11-01T10:17:53.814Z,8.83
2023-11-01T10:20:26.526Z,8.50
2023-11-01T10:22:58.905Z,8.58
2023-11-01T10:25:28.610Z,9.02
2023-11-01T10:27:57.204Z,9.57
2023-11-01T10:30:26.530Z,10.03
2023-11-01T10:32:56.101Z,9.85
2023-11-01T10:35:24.697Z,10.23
2023-11-01T10:37:59.499Z,9.73
2023-11-01T10:40:29.104Z,10.31
2023-11-01T10:43:00.419Z,10.05
2023-11-01T10:45:29.076Z,10.43
2023-11-01T10:47:58.145Z,10.70
2023-11-01T10:50:28.692Z,10.72
2023-11-01T10:52:59.172Z,10.71
2023-11-01T10:55:30.013Z,11.25
2023-11-01T10:57:58.893Z,11.04
2023-11-01T11:00:34.162Z,11.09
2023-11-01T11:03:09.165Z,11.15
2023-11-01T11:05:42.656Z,11.26
2023-11-01T11:08:13.040Z,11.55
2023-11-01T11:10:43.513Z,11.87
2023-11-01T11:13:39.188Z,11.16
2023-11-01T11:16:10.009Z,12.07
2023-11-01T11:19:00.577Z,10.96
2023-11-01T11:21:55.312Z,11.15
2023-11-01T11:24:59.227Z,11.27
2023-11-01T11:27:53.628Z,11.14
2023-11-01T11:31:07.246Z,11.29
2023-11-01T11:33:36.321Z,11.80
2023-11-01T11:36:12.333Z,11.34
2023-11-01T11:38:46.349Z,11.55
2023-11-01T11:41:18.806Z,11.07
2023-11-01T11:44:07.563Z,10.65
2023-11-01T11:46:39.612Z,11.45
2023-11-01T11:49:09.613Z,11.06
2023-11-01T11:51:39.090Z,11.33
2023-11-01T11:54:14.370Z,11.07
2023-11-01T11:56:45.117Z,11.39
2023-11-01T11:59:20.281Z,11.54
2023-11-01T12:01:49.425Z,12.45
2023-11-01T12:04:18.321Z,12.82
2023-11-01T12:06:48.070Z,12.48
2023-11-01T12:09:20.588Z,12.51
2023-11-01T12:11:52.289Z,12.73
2023-11-01T12:14:21.578Z,13.34
2023-11-01T12:16:51.383Z,13.00
2023-11-01T12:19:20.601Z,13.36
2023-11-01T12:21:50.915Z,12.98
2023-11-01T12:24:20.904Z,13.25
2023-11-01T12:27:19.121Z,12.40
2023-11-01T12:29:49.072Z,13.01
2023-11-01T12:32:19.800Z,12.92
2023-11-01T12:35:06.396Z,11.98
2023-11-01T12:37:36.157Z,12.73
2023-11-01T12:40:09.012Z,12.49
2023-11-01T12:42:39.950Z,12.70
2023-11-01T12:45:09.849Z,12.88
2023-11-01T12:47:43.302Z,12.25
2023-11-01T12:50:12.153Z,12.82
2023-11-01T12:52:41.834Z,13.10
2023-11-01T12:55:10.880Z,12.77
2023-11-01T12:57:44.617Z,12.37
2023-11-01T13:00:16.936Z,12.62
2023-11-01T13:02:45.846Z,12.51
2023-11-01T13:05:16.622Z,13.20
2023-11-01T13:07:46.513Z,13.28
2023-11-01T13:10:16.262Z,12.80
2023-11-01T13:12:48.100Z,13.13
2023-11-01T13:15:17.862Z,13.12
2023-11-01T13:17:46.743Z,13.38
2023-11-01T13:20:15.074Z,13.29
2023-11-01T13:22:43.727Z,13.30
2023-11-01T13:25:12.366Z,13.54
2023-11-01T13:27:41.183Z,13.38
2023-11-01T13:30:12.096Z,13.06
2023-11-01T13:32:40.574Z,12.51
2023-11-01T13:35:09.672Z,13.95
2023-11-01T13:37:38.317Z,13.52
2023-11-01T13:40:07.595Z,13.29
2023-11-01T13:42:36.356Z,13.68
2023-11-01T13:45:05.116Z,13.54
2023-11-01T13:47:35.349Z,13.19
2023-11-01T13:50:03.819Z,13.85
2023-11-01T13:52:32.397Z,13.99
2023-11-01T13:55:00.698Z,13.93
2023-11-01T13:57:29.596Z,13.76
2023-11-01T13:59:58.329Z,13.48
2023-11-01T14:02:27.380Z,13.47
2023-11-01T14:04:57.309Z,13.14
2023-11-01T14:07:27.087Z,13.40
2023-11-01T14:09:55.699Z,13.57
2023-11-01T14:12:35.094Z,13.61
2023-11-01T14:15:03.576Z,13.30
2023-11-01T14:17:35.410Z,13.46
2023-11-01T14:20:06.025Z,13.17
2023-11-01T14:22:34.673Z,13.46
2023-11-01T14:25:03.056Z,13.19
2023-11-01T14:27:31.828Z,13.57
2023-11-01T14:30:01.769Z,13.47
2023-11-01T14:32:31.132Z,13.63
2023-11-01T14:35:00.940Z,13.28
2023-11-01T14:37:31.038Z,13.45
2023-11-01T14:40:00.576Z,12.07
2023-11-01T14:42:29.338Z,13.46
2023-11-01T14:44:57.699Z,13.80
2023-11-01T14:47:26.408Z,13.73
2023-11-01T14:49:54.811Z,13.78
2023-11-01T14:52:23.888Z,14.07
2023-11-01T14:54:53.735Z,13.82
2023-11-01T14:57:22.732Z,14.40
2023-11-01T14:59:51.163Z,14.24
2023-11-01T15:02:21.137Z,14.14
2023-11-01T15:04:51.700Z,14.28
2023-11-01T15:07:21.103Z,14.44
2023-11-01T15:09:49.473Z,14.40
2023-11-01T15:12:23.833Z,14.11
2023-11-01T15:14:53.530Z,14.88
2023-11-01T15:17:22.335Z,15.17
2023-11-01T15:19:50.910Z,14.76
2023-11-01T15:22:19.562Z,14.76
2023-11-01T15:24:49.089Z,14.83
2023-11-01T15:27:19.712Z,15.02
2023-11-01T15:29:49.540Z,15.10
2023-11-01T15:32:18.327Z,15.14
2023-11-01T15:34:47.541Z,15.05
2023-11-01T15:37:16.552Z,15.66
2023-11-01T15:39:45.712Z,15.47
2023-11-01T15:42:14.734Z,15.74
2023-11-01T15:44:44.506Z,15.70
2023-11-01T15:47:13.407Z,15.83
2023-11-01T15:49:41.747Z,15.95
2023-11-01T15:52:10.457Z,15.78
2023-11-01T15:54:38.728Z,15.96
2023-11-01T15:57:12.027Z,15.88
2023-11-01T15:59:40.427Z,16.17
2023-11-01T16:02:11.985Z,15.70
2023-11-01T16:04:40.679Z,16.30
2023-11-01T16:07:09.665Z,16.38
2023-11-01T16:09:39.564Z,16.27
2023-11-01T16:12:09.875Z,16.24
2023-11-01T16:14:38.315Z,16.49
2023-11-01T16:17:08.783Z,16.45
2023-11-01T16:19:38.731Z,16.12
2023-11-01T16:22:07.609Z,16.78
2023-11-01T16:24:35.982Z,16.58
2023-11-01T16:27:05.198Z,16.51
2023-11-01T16:29:33.550Z,16.71
2023-11-01T16:32:02.513Z,16.72
2023-11-01T16:34:30.922Z,16.75
2023-11-01T16:37:00.990Z,16.50
2023-11-01T16:39:29.441Z,16.82
2023-11-01T16:41:58.086Z,16.77
2023-11-01T16:44:26.320Z,16.95
2023-11-01T16:46:55.978Z,17.23
2023-11-01T16:49:24.413Z,17.16
2023-11-01T16:51:53.084Z,17.25
2023-11-01T16:54:22.860Z,17.01
2023-11-01T16:56:51.514Z,17.27
2023-11-01T16:59:20.048Z,16.84
2023-11-01T17:01:48.924Z,17.18
2023-11-01T17:04:17.477Z,17.33
2023-11-01T17:06:46.317Z,17.29
2023-11-01T17:09:14.636Z,17.58
2023-11-01T17:11:45.164Z,17.04
2023-11-01T17:14:13.554Z,17.31
2023-11-01T17:16:42.829Z,17.27
2023-11-01T17:19:11.241Z,17.27
2023-11-01T17:21:39.783Z,17.16
2023-11-01T17:24:09.317Z,17.25
2023-11-01T17:26:38.033Z,17.27
2023-11-01T17:29:08.756Z,16.94
2023-11-01T17:31:40.644Z,17.01
2023-11-01T17:34:10.388Z,17.40
2023-11-01T17:36:39.254Z,17.42
2023-11-01T17:39:09.534Z,17.39
2023-11-01T17:41:59.244Z,16.45
2023-11-01T17:44:32.411Z,17.06
2023-11-01T17:47:03.423Z,17.10
2023-11-01T17:49:58.689Z,16.04
2023-11-01T17:52:32.721Z,16.43
2023-11-01T17:55:01.952Z,16.97
2023-11-01T17:57:33.186Z,16.76
2023-11-01T18:00:05.105Z,16.83
2023-11-01T18:03:17.032Z,16.11
2023-11-01T18:05:56.100Z,17.20
2023-11-01T18:08:32.504Z,16.56
2023-11-01T18:11:04.708Z,17.16
2023-11-01T18:13:34.745Z,17.08
2023-11-01T18:16:06.834Z,16.76
2023-11-01T18:18:45.891Z,16.63
2023-11-01T18:21:20.395Z,16.63
2023-11-01T18:23:55.526Z,16.47
2023-11-01T18:26:24.094Z,17.26
2023-11-01T18:28:57.830Z,16.74
2023-11-01T18:31:30.804Z,16.85
2023-11-01T18:34:01.663Z,16.99
2023-11-01T18:36:32.212Z,17.25
2023-11-01T18:39:01.488Z,17.26
2023-11-01T18:41:34.830Z,16.29
2023-11-01T18:44:04.905Z,16.94
2023-11-01T18:46:36.973Z,16.80
2023-11-01T18:49:06.934Z,17.16
2023-11-01T18:51:56.925Z,16.36
2023-11-01T18:54:40.154Z,16.24
2023-11-01T18:57:15.575Z,16.97
2023-11-01T18:59:45.326Z,17.26
2023-11-01T19:02:53.732Z,16.36
2023-11-01T19:05:24.491Z,16.96
2023-11-01T19:07:53.650Z,17.23
2023-11-01T19:10:24.709Z,17.14
2023-11-01T19:12:54.085Z,17.31
2023-11-01T19:16:18.351Z,16.08
2023-11-01T19:18:49.944Z,16.96
2023-11-01T19:21:19.460Z,17.14
2023-11-01T19:23:50.085Z,17.27
2023-11-01T19:26:21.888Z,17.33
2023-11-01T19:28:51.823Z,17.33
2023-11-01T19:31:22.273Z,17.27
2023-11-01T19:33:54.531Z,17.06
2023-11-01T19:36:24.445Z,17.33
2023-11-01T19:38:53.300Z,17.46
2023-11-01T19:41:22.613Z,17.43
2023-11-01T19:43:57.555Z,17.25
2023-11-01T19:46:26.967Z,17.22
2023-11-01T19:48:57.184Z,16.94
2023-11-01T19:51:25.815Z,17.25
2023-11-01T19:53:56.741Z,17.57
2023-11-01T19:56:27.214Z,17.31
2023-11-01T19:58:55.557Z,17.37
2023-11-01T20:01:24.326Z,17.83
2023-11-01T20:03:57.985Z,16.83
2023-11-01T20:06:26.967Z,17.17
2023-11-01T20:08:55.367Z,17.34
2023-11-01T20:11:24.474Z,17.77
2023-11-01T20:13:53.298Z,17.96
2023-11-01T20:16:30.134Z,17.99
2023-11-01T20:19:02.912Z,17.57
2023-11-01T20:21:33.741Z,17.90
2023-11-01T20:24:02.318Z,17.89
2023-11-01T20:26:31.726Z,18.16
2023-11-01T20:29:01.140Z,18.31
2023-11-01T20:31:31.332Z,18.42
2023-11-01T20:34:02.347Z,18.53
2023-11-01T20:36:31.204Z,18.59
2023-11-01T20:39:00.843Z,18.82
2023-11-01T20:41:29.667Z,18.87
2023-11-01T20:43:58.166Z,18.80
2023-11-01T20:46:26.733Z,18.77
2023-11-01T20:48:55.237Z,18.63
2023-11-01T20:51:25.340Z,18.69
2023-11-01T20:53:54.916Z,18.72
2023-11-01T20:56:23.722Z,18.99
2023-11-01T20:58:53.127Z,18.98
2023-11-01T21:01:21.943Z,18.81
2023-11-01T21:03:51.080Z,19.46
2023-11-01T21:06:21.606Z,19.36
2023-11-01T21:08:54.116Z,19.11
2023-11-01T21:11:22.902Z,19.36
2023-11-01T21:13:52.128Z,19.72
2023-11-01T21:16:21.172Z,19.44
2023-11-01T21:18:50.924Z,19.45
2023-11-01T21:21:19.945Z,19.46
2023-11-01T21:23:48.518Z,19.46
2023-11-01T21:26:18.533Z,19.33
2023-11-01T21:28:46.852Z,19.59
2023-11-01T21:31:15.543Z,20.02
2023-11-01T21:33:46.600Z,20.21
2023-11-01T21:36:15.545Z,20.03
2023-11-01T21:38:44.870Z,19.66
2023-11-01T21:41:13.909Z,20.03
2023-11-01T21:43:53.988Z,19.37
2023-11-01T21:46:29.343Z,19.24
2023-11-01T21:48:58.157Z,19.21
2023-11-01T21:51:30.485Z,19.05
2023-11-01T21:53:59.735Z,19.00
2023-11-01T21:56:36.294Z,18.74
2023-11-01T21:59:18.133Z,18.72
2023-11-01T22:01:46.764Z,19.51
2023-11-01T22:04:21.632Z,19.00
2023-11-01T22:06:52.551Z,18.67
2023-11-01T22:09:22.491Z,18.95
2023-11-01T22:11:52.485Z,18.83
2023-11-01T22:14:37.161Z,18.45
2023-11-01T22:17:08.227Z,19.42
2023-11-01T22:19:38.611Z,18.95
2023-11-01T22:22:11.925Z,18.77
2023-11-01T22:24:43.079Z,19.06
2023-11-01T22:27:12.800Z,19.28
2023-11-01T22:29:48.090Z,18.19
2023-11-01T22:32:27.193Z,18.01
2023-11-01T22:34:56.645Z,18.89
2023-11-01T22:37:28.420Z,18.67
2023-11-01T22:39:57.921Z,18.93
2023-11-01T22:42:29.939Z,18.51
2023-11-01T22:45:03.098Z,18.99
2023-11-01T22:47:32.878Z,19.12
2023-11-01T22:50:01.963Z,19.13
2023-11-01T22:52:31.377Z,19.15
2023-11-01T22:55:01.065Z,19.40
2023-11-01T22:57:31.735Z,19.39
2023-11-01T23:00:02.516Z,19.24
2023-11-01T23:02:32.473Z,19.17
2023-11-01T23:05:00.864Z,19.34
2023-11-01T23:07:29.699Z,19.63
2023-11-01T23:09:58.549Z,19.85
2023-11-01T23:12:27.756Z,19.83
2023-11-01T23:14:56.125Z,19.64
2023-11-01T23:17:26.124Z,19.60
2023-11-01T23:19:54.604Z,19.99
2023-11-01T23:22:23.226Z,19.87
2023-11-01T23:24:51.668Z,19.89
2023-11-01T23:27:20.390Z,19.67
2023-11-01T23:29:48.825Z,19.67
2023-11-01T23:32:17.709Z,19.69
2023-11-01T23:34:49.816Z,19.06
2023-11-01T23:37:34.911Z,18.63
2023-11-01T23:40:05.792Z,19.91
2023-11-01T23:42:35.454Z,19.78
2023-11-01T23:45:27.815Z,19.75
2023-11-01T23:47:58.383Z,19.39
2023-11-01T23:50:34.083Z,19.00
2023-11-01T23:53:04.220Z,19.78
2023-11-01T23:55:32.780Z,19.69
2023-11-01T23:58:01.985Z,20.41
